.
WxDataArchive / Data Records for 2009-09-23
2009-09-22 September 2009 2009-09-24

Data Records for Wednesday, 23 September 2009

Time	Temp	Chill	HIndex	Humid	Dewpt	 Wind 	HiWind	WindDir	Rain 	Barom 
-----	----	-----	------	-----	-----	------	------	-------	-----	----- 
00:00	68.9	68.9	68.9	95	67.4	0	0	---	0.00	30.026 
00:05	68.8	68.8	68.8	95	67.3	0	0	---	0.00	30.026 
00:10	68.9	68.9	68.9	95	67.4	0	1	22	0.00	30.026 
00:15	68.9	68.9	68.9	95	67.4	0	1	22	0.00	30.024 
00:20	69.1	69.1	69.1	96	67.9	0	1	22	0.00	30.024 
00:25	69.1	69.1	69.1	95	67.6	0	0	---	0.00	30.024 
00:30	69.1	69.1	69.1	96	67.9	0	0	---	0.00	30.027 
00:35	69.1	69.1	69.1	96	67.9	0	0	---	0.00	30.027 
00:40	69.1	69.1	69.1	96	67.9	0	0	---	0.00	30.027 
00:45	69.1	69.1	69.1	96	67.9	0	0	---	0.00	30.029 
00:50	68.9	68.9	68.9	96	67.7	0	0	---	0.00	30.029 
00:55	68.9	68.9	68.9	96	67.7	0	0	---	0.00	30.029 
01:00	69.1	69.1	69.1	96	67.9	0	0	---	0.00	30.030 
01:05	69.1	69.1	69.1	96	67.9	0	1	22	0.00	30.030 
01:10	69.3	69.3	69.3	96	68.1	0	1	22	0.01	30.030 
01:15	69.3	69.3	69.3	96	68.1	0	1	22	0.01	30.027 
01:20	69.3	69.3	69.3	96	68.1	0	1	22	0.00	30.027 
01:25	69.3	69.3	69.3	96	68.1	0	1	22	0.00	30.027 
01:30	69.3	69.3	69.3	96	68.1	0	1	22	0.00	30.036 
01:35	69.3	69.3	69.3	96	68.1	0	1	22	0.00	30.036 
01:40	69.3	69.3	69.3	96	68.1	0	1	0	0.00	30.036 
01:45	69.3	69.3	69.3	96	68.1	0	1	0	0.00	30.037 
01:50	69.3	69.3	69.3	96	68.1	0	1	0	0.00	30.037 
01:55	69.3	69.3	69.3	96	68.1	0	1	0	0.00	30.037 
02:00	69.3	69.3	69.3	96	68.1	0	1	0	0.00	30.040 
02:05	69.3	69.3	69.3	96	68.1	0	1	0	0.00	30.040 
02:10	69.3	69.3	69.3	96	68.1	0	1	0	0.00	30.040 
02:15	69.3	69.3	69.3	96	68.1	0	0	---	0.00	30.040 
02:20	69.3	69.3	69.3	96	68.1	0	1	0	0.00	30.040 
02:25	69.3	69.3	69.3	96	68.1	0	0	---	0.00	30.040 
02:30	69.3	69.3	69.3	96	68.1	0	0	---	0.00	30.039 
02:35	69.3	69.3	69.3	96	68.1	0	0	---	0.00	30.039 
02:40	69.1	69.1	69.1	96	67.9	0	0	---	0.00	30.039 
02:45	69.1	69.1	69.1	96	67.9	0	0	---	0.00	30.039 
02:50	69.1	69.1	69.1	96	67.9	0	1	0	0.00	30.039 
02:55	69.1	69.1	69.1	96	67.9	0	1	0	0.00	30.039 
03:00	69.1	69.1	69.1	96	67.9	0	2	338	0.00	30.040 
03:05	69.1	69.1	69.1	96	67.9	0	1	338	0.00	30.040 
03:10	69.3	69.3	69.3	96	68.1	0	1	338	0.00	30.040 
03:15	69.3	69.3	69.3	96	68.1	0	1	338	0.00	30.044 
03:20	69.4	69.4	69.4	96	68.2	0	2	338	0.00	30.044 
03:25	69.4	69.4	69.4	96	68.2	0	2	338	0.00	30.044 
03:30	69.4	69.4	69.4	96	68.2	0	2	315	0.00	30.045 
03:35	69.4	69.4	69.4	96	68.2	0	2	315	0.00	30.045 
03:40	69.4	69.4	69.4	96	68.2	0	2	315	0.00	30.045 
03:45	69.4	69.4	69.4	96	68.2	0	3	248	0.00	30.044 
03:50	69.4	69.4	69.4	96	68.2	0	1	248	0.00	30.044 
03:55	69.4	69.4	69.4	96	68.2	0	1	248	0.00	30.044 
04:00	69.3	69.3	69.3	96	68.1	0	2	248	0.00	30.042 
04:05	69.3	69.3	69.3	96	68.1	0	2	248	0.00	30.042 
04:10	69.3	69.3	69.3	96	68.1	0	1	248	0.00	30.042 
04:15	69.1	69.1	69.1	96	67.9	0	2	248	0.00	30.042 
04:20	69.1	69.1	69.1	96	67.9	0	1	248	0.00	30.042 
04:25	68.9	68.9	68.9	96	67.7	0	1	248	0.00	30.042 
04:30	68.9	68.9	68.9	96	67.7	0	1	248	0.00	30.039 
04:35	68.8	68.8	68.8	96	67.6	0	0	---	0.00	30.039 
04:40	68.8	68.8	68.8	96	67.6	0	0	---	0.00	30.039 
04:45	68.6	68.6	68.6	96	67.4	0	1	248	0.00	30.035 
04:50	68.6	68.6	68.6	96	67.4	0	1	248	0.00	30.035 
04:55	68.4	68.4	68.4	96	67.2	0	0	---	0.00	30.035 
05:00	68.3	68.3	68.3	96	67.1	0	0	---	0.00	30.040 
05:05	68.3	68.3	68.3	96	67.1	0	1	248	0.00	30.040 
05:10	68.1	68.1	68.1	96	66.9	0	0	---	0.00	30.040 
05:15	67.9	67.9	67.9	96	66.7	0	0	---	0.00	30.040 
05:20	67.8	67.8	67.8	96	66.6	0	0	---	0.00	30.040 
05:25	67.6	67.6	67.6	96	66.4	0	0	---	0.00	30.040 
05:30	67.6	67.6	67.6	96	66.4	0	0	---	0.00	30.045 
05:35	67.6	67.6	67.6	96	66.4	0	0	---	0.00	30.045 
05:40	67.4	67.4	67.4	96	66.2	0	0	---	0.00	30.045 
05:45	67.6	67.6	67.6	96	66.4	0	0	---	0.00	30.053 
05:50	67.6	67.6	67.6	96	66.4	0	0	---	0.00	30.053 
05:55	67.6	67.6	67.6	96	66.4	0	0	---	0.00	30.053 
06:00	67.6	67.6	67.6	96	66.4	0	1	248	0.00	30.060 
06:05	67.6	67.6	67.6	96	66.4	0	0	---	0.00	30.060 
06:10	67.6	67.6	67.6	96	66.4	0	0	---	0.00	30.060 
06:15	67.4	67.4	67.4	96	66.2	0	0	---	0.00	30.065 
06:20	67.4	67.4	67.4	96	66.2	0	0	---	0.00	30.065 
06:25	67.4	67.4	67.4	96	66.2	0	0	---	0.00	30.065 
06:30	67.4	67.4	67.4	96	66.2	0	0	---	0.00	30.070 
06:35	67.4	67.4	67.4	96	66.2	0	0	---	0.00	30.070 
06:40	67.6	67.6	67.6	96	66.4	0	0	---	0.00	30.070 
06:45	67.6	67.6	67.6	96	66.4	0	0	---	0.00	30.073 
06:50	67.6	67.6	67.6	96	66.4	0	0	---	0.00	30.073 
06:55	67.6	67.6	67.6	96	66.4	0	0	---	0.00	30.073 
07:00	67.6	67.6	67.6	96	66.4	0	0	---	0.00	30.075 
07:05	67.6	67.6	67.6	96	66.4	0	0	---	0.00	30.075 
07:10	67.6	67.6	67.6	96	66.4	0	1	248	0.00	30.075 
07:15	67.6	67.6	67.6	96	66.4	0	1	248	0.00	30.082 
07:20	67.6	67.6	67.6	96	66.4	0	1	248	0.00	30.082 
07:25	67.6	67.6	67.6	96	66.4	0	0	---	0.00	30.082 
07:30	67.6	67.6	67.6	96	66.4	0	0	---	0.00	30.087 
07:35	67.6	67.6	67.6	96	66.4	0	0	---	0.00	30.087 
07:40	67.4	67.4	67.4	96	66.2	0	1	248	0.00	30.087 
07:45	67.4	67.4	67.4	96	66.2	0	0	---	0.00	30.092 
07:50	67.4	67.4	67.4	96	66.2	0	1	248	0.00	30.092 
07:55	67.3	67.3	67.3	96	66.1	0	1	248	0.00	30.092 
08:00	67.3	67.3	67.3	96	66.1	0	0	---	0.00	30.097 
08:05	67.3	67.3	67.3	96	66.1	0	0	---	0.00	30.097 
08:10	67.3	67.3	67.3	96	66.1	0	0	---	0.00	30.097 
08:15	67.3	67.3	67.3	96	66.1	0	0	---	0.00	30.095 
08:20	67.3	67.3	67.3	96	66.1	0	0	---	0.00	30.095 
08:25	67.3	67.3	67.3	96	66.1	0	1	248	0.00	30.095 
08:30	67.1	67.1	67.1	96	65.9	0	0	---	0.00	30.097 
08:35	67.3	67.3	67.3	96	66.1	0	0	---	0.00	30.097 
08:40	67.4	67.4	67.4	96	66.2	0	0	---	0.00	30.097 
08:45	67.4	67.4	67.4	96	66.2	0	1	248	0.00	30.094 
08:50	67.3	67.3	67.3	96	66.1	0	0	---	0.00	30.094 
08:55	67.4	67.4	67.4	96	66.2	0	0	---	0.00	30.094 
09:00	67.6	67.6	67.6	96	66.4	0	0	---	0.00	30.094 
09:05	67.9	67.9	67.9	96	66.7	0	0	---	0.00	30.094 
09:10	67.9	67.9	67.9	96	66.7	0	1	248	0.00	30.094 
09:15	67.9	67.9	67.9	96	66.7	0	2	248	0.00	30.100 
09:20	68.1	68.1	68.1	96	66.9	0	1	248	0.00	30.100 
09:25	68.3	68.3	68.3	96	67.1	0	1	248	0.00	30.100 
09:30	68.4	68.4	68.4	96	67.2	0	1	248	0.00	30.111 
09:35	68.6	68.6	68.6	96	67.4	0	1	248	0.00	30.111 
09:40	68.8	68.8	68.8	96	67.6	0	1	248	0.00	30.111 
09:45	68.8	68.8	68.8	96	67.6	0	0	---	0.00	30.111 
09:50	68.9	68.9	68.9	96	67.7	0	0	---	0.00	30.111 
09:55	68.9	68.9	68.9	96	67.7	0	1	248	0.00	30.111 
10:00	69.1	69.1	69.1	96	67.9	0	1	248	0.00	30.115 
10:05	69.3	69.3	69.3	96	68.1	0	1	248	0.00	30.115 
10:10	69.6	69.6	69.6	95	68.1	0	1	248	0.00	30.115 
10:15	69.9	69.9	69.9	95	68.4	0	1	248	0.00	30.112 
10:20	70.1	70.1	70.1	94	68.3	0	1	248	0.00	30.112 
10:25	70.3	70.3	70.3	94	68.5	0	1	248	0.00	30.112 
10:30	70.8	70.8	70.8	93	68.7	0	1	248	0.00	30.112 
10:35	71.1	71.1	71.1	92	68.7	0	2	315	0.00	30.112 
10:40	71.6	71.6	71.6	91	68.8	0	1	292	0.00	30.112 
10:45	72.1	72.1	72.1	89	68.7	0	2	292	0.00	30.118 
10:50	72.5	72.5	72.5	86	68.1	0	1	338	0.00	30.118 
10:55	72.7	72.7	72.7	84	67.6	0	2	315	0.00	30.118 
11:00	73.0	73.0	73.0	83	67.5	1	3	270	0.00	30.120 
11:05	73.0	73.0	73.0	82	67.2	1	4	270	0.01	30.120 
11:10	73.0	73.0	73.0	81	66.8	1	2	248	0.00	30.120 
11:15	73.0	73.0	73.0	81	66.8	0	2	225	0.00	30.120 
11:20	73.0	73.0	73.0	81	66.8	0	2	225	0.00	30.120 
11:25	73.0	73.0	73.0	80	66.5	1	3	270	0.00	30.120 
11:30	73.2	73.2	73.2	80	66.6	0	2	270	0.00	30.125 
11:35	73.2	73.2	73.2	78	65.9	1	2	270	0.00	30.125 
11:40	73.5	73.5	73.5	80	66.9	0	2	270	0.00	30.125 
11:45	73.9	73.9	73.9	80	67.3	0	2	270	0.00	30.126 
11:50	74.2	74.2	74.2	77	66.5	1	3	270	0.00	30.126 
11:55	74.6	74.6	74.6	77	66.9	1	2	270	0.00	30.126 
12:00	74.7	74.7	74.7	76	66.6	0	2	270	0.00	30.123 
12:05	75.1	75.1	76.3	75	66.6	1	3	270	0.00	30.123 
12:10	75.3	75.3	76.7	73	66.0	1	2	270	0.00	30.123 
12:15	75.3	75.3	76.8	72	65.6	1	3	270	0.00	30.120 
12:20	75.4	75.4	77.0	71	65.3	1	4	270	0.00	30.120 
12:25	75.4	75.4	76.9	72	65.7	2	4	270	0.00	30.120 
12:30	75.8	75.8	77.4	71	65.7	1	4	292	0.00	30.122 
12:35	76.3	76.3	77.9	72	66.6	1	3	292	0.00	30.122 
12:40	76.5	76.5	78.2	70	66.0	1	3	292	0.00	30.122 
12:45	76.3	76.3	78.0	69	65.4	1	3	292	0.00	30.121 
12:50	76.0	76.0	77.9	65	63.4	2	3	292	0.00	30.121 
12:55	76.0	76.0	77.8	67	64.2	1	4	292	0.00	30.121 
13:00	75.8	75.8	77.6	67	64.0	1	3	292	0.00	30.123 
13:05	75.6	75.6	77.4	68	64.3	2	5	315	0.00	30.123 
13:10	75.8	75.8	77.5	69	64.9	2	5	292	0.00	30.123 
13:15	75.8	75.8	77.5	69	64.9	1	4	315	0.00	30.123 
13:20	75.8	75.8	77.6	68	64.5	1	4	315	0.00	30.123 
13:25	75.6	75.6	77.3	69	64.7	2	4	315	0.00	30.123 
13:30	75.8	75.8	77.6	68	64.5	2	4	292	0.00	30.124 
13:35	76.0	76.0	77.9	65	63.4	2	4	315	0.00	30.124 
13:40	76.3	76.3	78.1	67	64.5	2	4	315	0.00	30.124 
13:45	76.1	76.1	77.9	66	63.9	2	6	338	0.00	30.124 
13:50	76.1	76.1	77.9	66	63.9	2	5	315	0.00	30.124 
13:55	76.5	76.5	78.3	65	63.8	1	4	270	0.00	30.124 
14:00	76.1	76.1	78.0	65	63.5	1	3	315	0.00	30.126 
14:05	76.1	76.1	78.0	65	63.5	1	3	315	0.00	30.126 
14:10	76.3	76.3	78.1	65	63.6	1	2	315	0.00	30.126 
14:15	76.7	76.7	78.5	66	64.5	1	2	315	0.00	30.122 
14:20	76.3	76.3	78.2	64	63.2	1	4	292	0.00	30.122 
14:25	75.8	75.8	77.7	66	63.6	1	3	315	0.00	30.122 
14:30	75.8	75.8	77.6	67	64.0	1	2	315	0.00	30.122 
14:35	76.3	76.3	78.1	67	64.5	0	1	315	0.00	30.122 
14:40	76.7	76.7	78.5	63	63.1	0	1	315	0.00	30.122 
14:45	77.0	77.0	78.8	67	65.2	0	1	315	0.00	30.119 
14:50	76.8	76.8	78.6	63	63.2	0	1	315	0.00	30.119 
14:55	76.7	76.7	78.5	64	63.6	0	2	292	0.00	30.119 
15:00	76.3	76.3	78.2	63	62.8	1	4	338	0.00	30.120 
15:05	75.8	75.8	77.8	63	62.3	2	4	270	0.00	30.120 
15:10	76.0	76.0	77.9	64	62.9	1	3	292	0.00	30.120 
15:15	76.3	76.3	78.2	64	63.2	1	3	292	0.00	30.119 
15:20	76.7	76.7	78.5	62	62.7	2	3	292	0.00	30.119 
15:25	76.8	76.8	78.6	62	62.8	0	2	292	0.00	30.119 
15:30	76.8	76.8	78.6	61	62.3	1	4	292	0.00	30.112 
15:35	77.0	77.0	78.8	62	63.0	1	4	315	0.00	30.112 
15:40	76.8	76.8	78.6	61	62.3	1	4	315	0.00	30.112 
15:45	76.8	76.8	78.6	62	62.8	1	3	292	0.00	30.113 
15:50	76.8	76.8	78.6	62	62.8	1	3	315	0.00	30.113 
15:55	76.8	76.8	78.6	61	62.3	1	3	315	0.00	30.113 
16:00	77.0	77.0	78.8	62	63.0	0	2	315	0.00	30.111 
16:05	77.0	77.0	78.8	59	61.6	1	2	315	0.00	30.111 
16:10	77.2	77.2	78.9	60	62.2	1	3	315	0.00	30.111 
16:15	77.0	77.0	78.8	60	62.0	1	2	315	0.00	30.110 
16:20	77.0	77.0	78.8	61	62.5	1	3	338	0.00	30.110 
16:25	76.8	76.8	78.6	60	61.8	1	3	270	0.00	30.110 
16:30	76.8	76.8	78.6	60	61.8	1	2	270	0.00	30.108 
16:35	76.7	76.7	78.5	61	62.2	0	2	270	0.00	30.108 
16:40	76.7	76.7	78.5	60	61.7	0	2	315	0.00	30.108 
16:45	76.7	76.7	78.5	61	62.2	0	1	315	0.00	30.110 
16:50	76.7	76.7	78.5	60	61.7	1	2	315	0.00	30.110 
16:55	76.7	76.7	78.5	61	62.2	0	1	338	0.00	30.110 
17:00	76.8	76.8	78.6	60	61.8	0	2	338	0.00	30.108 
17:05	76.7	76.7	78.5	60	61.7	0	2	338	0.00	30.108 
17:10	76.7	76.7	78.5	60	61.7	1	3	338	0.00	30.108 
17:15	76.7	76.7	78.5	61	62.2	0	1	338	0.00	30.107 
17:20	76.7	76.7	78.5	61	62.2	1	3	292	0.00	30.107 
17:25	76.7	76.7	78.5	60	61.7	1	4	292	0.00	30.107 
17:30	76.7	76.7	78.5	61	62.2	0	3	292	0.00	30.104 
17:35	76.7	76.7	78.5	61	62.2	0	2	292	0.00	30.104 
17:40	76.7	76.7	78.5	60	61.7	1	3	292	0.00	30.104 
17:45	76.5	76.5	78.4	60	61.6	1	3	292	0.00	30.102 
17:50	76.3	76.3	78.2	62	62.3	0	1	292	0.00	30.102 
17:55	76.3	76.3	78.2	61	61.8	0	1	292	0.00	30.102 
18:00	76.3	76.3	78.2	62	62.3	0	2	292	0.00	30.105 
18:05	76.5	76.5	78.4	62	62.5	0	1	292	0.00	30.105 
18:10	76.3	76.3	78.2	61	61.8	0	2	292	0.00	30.105 
18:15	76.1	76.1	78.0	62	62.1	0	1	292	0.00	30.104 
18:20	76.1	76.1	78.0	62	62.1	0	2	292	0.00	30.104 
18:25	76.0	76.0	78.0	61	61.6	1	2	292	0.00	30.104 
18:30	76.0	76.0	78.0	61	61.6	0	2	292	0.00	30.105 
18:35	75.8	75.8	77.8	62	61.8	0	2	292	0.00	30.105 
18:40	75.6	75.6	77.7	62	61.6	0	2	292	0.00	30.105 
18:45	75.3	75.3	77.4	64	62.3	0	1	292	0.00	30.110 
18:50	75.1	75.1	77.2	64	62.1	0	1	292	0.00	30.110 
18:55	74.7	74.7	74.7	64	61.7	0	1	292	0.00	30.110 
19:00	74.6	74.6	74.6	65	62.0	0	1	292	0.00	30.111 
19:05	74.4	74.4	74.4	65	61.8	0	1	292	0.00	30.111 
19:10	74.2	74.2	74.2	66	62.1	0	0	---	0.00	30.111 
19:15	73.9	73.9	73.9	67	62.2	0	0	---	0.00	30.114 
19:20	73.7	73.7	73.7	67	62.0	0	0	---	0.00	30.114 
19:25	73.3	73.3	73.3	68	62.1	0	0	---	0.00	30.114 
19:30	73.2	73.2	73.2	69	62.4	0	0	---	0.00	30.115 
19:35	72.8	72.8	72.8	69	62.0	0	0	---	0.00	30.115 
19:40	72.5	72.5	72.5	70	62.1	0	0	---	0.00	30.115 
19:45	72.0	72.0	72.0	71	62.1	0	0	---	0.00	30.116 
19:50	71.6	71.6	71.6	72	62.1	0	0	---	0.00	30.116 
19:55	71.3	71.3	71.3	73	62.2	0	0	---	0.00	30.116 
20:00	70.9	70.9	70.9	74	62.2	0	0	---	0.00	30.117 
20:05	70.6	70.6	70.6	75	62.3	0	0	---	0.00	30.117 
20:10	70.3	70.3	70.3	76	62.4	0	0	---	0.00	30.117 
20:15	70.1	70.1	70.1	77	62.5	0	0	---	0.00	30.114 
20:20	69.9	69.9	69.9	78	62.7	0	0	---	0.00	30.114 
20:25	69.8	69.8	69.8	79	63.0	0	0	---	0.00	30.114 
20:30	69.4	69.4	69.4	80	63.0	0	0	---	0.00	30.113 
20:35	69.3	69.3	69.3	81	63.2	0	0	---	0.00	30.113 
20:40	69.1	69.1	69.1	81	63.0	0	0	---	0.00	30.113 
20:45	68.9	68.9	68.9	82	63.2	0	0	---	0.00	30.124 
20:50	68.8	68.8	68.8	82	63.1	0	0	---	0.00	30.124 
20:55	68.6	68.6	68.6	83	63.2	0	0	---	0.00	30.124 
21:00	68.4	68.4	68.4	84	63.4	0	0	---	0.00	30.127 
21:05	68.4	68.4	68.4	84	63.4	0	0	---	0.00	30.127 
21:10	68.3	68.3	68.3	84	63.3	0	0	---	0.00	30.127 
21:15	68.1	68.1	68.1	85	63.4	0	0	---	0.00	30.127 
21:20	67.9	67.9	67.9	85	63.2	0	0	---	0.00	30.127 
21:25	67.8	67.8	67.8	85	63.1	0	0	---	0.00	30.127 
21:30	67.6	67.6	67.6	86	63.3	0	0	---	0.00	30.131 
21:35	67.4	67.4	67.4	86	63.1	0	0	---	0.00	30.131 
21:40	67.3	67.3	67.3	87	63.3	0	0	---	0.00	30.131 
21:45	66.9	66.9	66.9	87	62.9	0	0	---	0.00	30.129 
21:50	66.9	66.9	66.9	88	63.2	0	0	---	0.00	30.129 
21:55	66.8	66.8	66.8	88	63.1	0	0	---	0.00	30.129 
22:00	66.9	66.9	66.9	89	63.5	0	0	---	0.00	30.131 
22:05	66.9	66.9	66.9	89	63.5	0	0	---	0.00	30.131 
22:10	67.1	67.1	67.1	89	63.7	0	0	---	0.00	30.131 
22:15	67.1	67.1	67.1	89	63.7	0	0	---	0.00	30.127 
22:20	67.1	67.1	67.1	89	63.7	0	0	---	0.00	30.127 
22:25	67.3	67.3	67.3	89	63.9	0	0	---	0.00	30.127 
22:30	67.3	67.3	67.3	89	63.9	0	0	---	0.00	30.131 
22:35	67.4	67.4	67.4	89	64.0	0	0	---	0.00	30.131 
22:40	67.3	67.3	67.3	89	63.9	0	0	---	0.00	30.131 
22:45	67.3	67.3	67.3	89	63.9	0	1	292	0.00	30.132 
22:50	67.3	67.3	67.3	89	63.9	0	0	---	0.00	30.132 
22:55	67.3	67.3	67.3	90	64.3	0	0	---	0.00	30.132 
23:00	67.3	67.3	67.3	90	64.3	0	0	---	0.00	30.135 
23:05	67.1	67.1	67.1	90	64.1	0	0	---	0.00	30.135 
23:10	67.1	67.1	67.1	90	64.1	0	0	---	0.00	30.135 
23:15	67.1	67.1	67.1	90	64.1	0	0	---	0.00	30.127 
23:20	66.9	66.9	66.9	90	63.9	0	0	---	0.00	30.127 
23:25	66.9	66.9	66.9	90	63.9	0	0	---	0.00	30.127 
23:30	66.9	66.9	66.9	91	64.2	0	0	---	0.00	30.138 
23:35	66.8	66.8	66.8	91	64.1	0	0	---	0.00	30.138 
23:40	66.8	66.8	66.8	91	64.1	0	0	---	0.00	30.138 
23:45	66.6	66.6	66.6	91	63.9	0	0	---	0.00	30.141 
23:50	66.6	66.6	66.6	91	63.9	0	0	---	0.00	30.141 
23:55	66.4	66.4	66.4	91	63.7	0	0	---	0.00	30.141 

CoCoRaHS
IN-AL-39
A2 Web Hosting
Creative Commons License
GoDaddy
search engine by freefind advanced

loaded 2018-11-17 23:22:05 • last modified 2010-11-18 10:43:29
Privacy PolicyDisclaimer
• wx.awcolley.com is powered by PmWiki v.2002016 •
• all content (unless otherwise noted) © 2018 A W Colley